sensor_id;sensor_type;location;lat;lon;timestamp;temperature;humidity
4934;DHT22;2482;49.154;8.254;2022-09-09T00:02:08;16.20;99.90
4934;DHT22;2482;49.154;8.254;2022-09-09T00:04:57;16.30;99.90
4934;DHT22;2482;49.154;8.254;2022-09-09T00:07:59;16.40;99.90
4934;DHT22;2482;49.154;8.254;2022-09-09T00:10:39;16.40;99.90
4934;DHT22;2482;49.154;8.254;2022-09-09T00:13:18;16.30;99.90
4934;DHT22;2482;49.154;8.254;2022-09-09T00:15:54;16.10;99.90
4934;DHT22;2482;49.154;8.254;2022-09-09T00:21:43;16.20;99.90
4934;DHT22;2482;49.154;8.254;2022-09-09T00:24:32;16.10;99.90
4934;DHT22;2482;49.154;8.254;2022-09-09T00:32:46;16.10;99.90
4934;DHT22;2482;49.154;8.254;2022-09-09T00:35:17;16.10;99.90
4934;DHT22;2482;49.154;8.254;2022-09-09T00:38:00;16.20;99.90
4934;DHT22;2482;49.154;8.254;2022-09-09T00:40:33;16.30;99.90
4934;DHT22;2482;49.154;8.254;2022-09-09T00:43:28;16.30;99.90
4934;DHT22;2482;49.154;8.254;2022-09-09T00:46:34;16.40;99.90
4934;DHT22;2482;49.154;8.254;2022-09-09T00:49:24;16.40;99.90
4934;DHT22;2482;49.154;8.254;2022-09-09T00:58:01;16.40;99.90
4934;DHT22;2482;49.154;8.254;2022-09-09T01:00:39;16.40;99.90
4934;DHT22;2482;49.154;8.254;2022-09-09T01:03:37;16.30;99.90
4934;DHT22;2482;49.154;8.254;2022-09-09T01:06:30;16.30;99.90
4934;DHT22;2482;49.154;8.254;2022-09-09T01:17:25;16.40;99.90
4934;DHT22;2482;49.154;8.254;2022-09-09T01:20:26;16.40;99.90
4934;DHT22;2482;49.154;8.254;2022-09-09T01:23:16;16.30;99.90
4934;DHT22;2482;49.154;8.254;2022-09-09T01:26:34;16.50;99.90
4934;DHT22;2482;49.154;8.254;2022-09-09T01:29:04;16.50;99.90
4934;DHT22;2482;49.154;8.254;2022-09-09T01:31:52;16.50;99.90
4934;DHT22;2482;49.154;8.254;2022-09-09T01:34:19;16.60;99.90
4934;DHT22;2482;49.154;8.254;2022-09-09T01:36:59;16.40;99.90
4934;DHT22;2482;49.154;8.254;2022-09-09T01:39:27;16.40;99.90
4934;DHT22;2482;49.154;8.254;2022-09-09T01:41:55;16.40;99.90
4934;DHT22;2482;49.154;8.254;2022-09-09T01:44:23;16.50;99.90
4934;DHT22;2482;49.154;8.254;2022-09-09T01:46:51;16.40;99.90
4934;DHT22;2482;49.154;8.254;2022-09-09T01:49:18;16.50;99.90
4934;DHT22;2482;49.154;8.254;2022-09-09T01:51:50;16.40;99.90
4934;DHT22;2482;49.154;8.254;2022-09-09T01:54:21;16.50;99.90
4934;DHT22;2482;49.154;8.254;2022-09-09T02:00:07;16.40;99.90
4934;DHT22;2482;49.154;8.254;2022-09-09T02:03:05;16.30;99.90
4934;DHT22;2482;49.154;8.254;2022-09-09T02:05:41;16.20;99.90
4934;DHT22;2482;49.154;8.254;2022-09-09T02:08:20;16.20;99.90
4934;DHT22;2482;49.154;8.254;2022-09-09T02:10:59;16.20;99.90
4934;DHT22;2482;49.154;8.254;2022-09-09T02:13:29;16.30;99.90
4934;DHT22;2482;49.154;8.254;2022-09-09T02:16:13;16.20;99.90
4934;DHT22;2482;49.154;8.254;2022-09-09T02:19:02;16.00;99.90
4934;DHT22;2482;49.154;8.254;2022-09-09T02:21:35;16.20;99.90
4934;DHT22;2482;49.154;8.254;2022-09-09T02:24:06;16.10;99.90
4934;DHT22;2482;49.154;8.254;2022-09-09T02:26:42;16.00;99.90
4934;DHT22;2482;49.154;8.254;2022-09-09T02:29:20;16.00;99.90
4934;DHT22;2482;49.154;8.254;2022-09-09T02:31:51;16.10;99.90
4934;DHT22;2482;49.154;8.254;2022-09-09T02:34:22;16.20;99.90
4934;DHT22;2482;49.154;8.254;2022-09-09T02:36:52;16.10;99.90
4934;DHT22;2482;49.154;8.254;2022-09-09T02:39:20;16.10;99.90
4934;DHT22;2482;49.154;8.254;2022-09-09T02:41:47;16.10;99.90
4934;DHT22;2482;49.154;8.254;2022-09-09T02:44:16;16.10;99.90
4934;DHT22;2482;49.154;8.254;2022-09-09T02:47:11;16.10;99.90
4934;DHT22;2482;49.154;8.254;2022-09-09T02:50:26;16.10;99.90
4934;DHT22;2482;49.154;8.254;2022-09-09T02:55:48;16.00;99.90
4934;DHT22;2482;49.154;8.254;2022-09-09T02:58:19;16.00;99.90
4934;DHT22;2482;49.154;8.254;2022-09-09T03:00:48;15.90;99.90
4934;DHT22;2482;49.154;8.254;2022-09-09T03:03:18;15.90;99.90
4934;DHT22;2482;49.154;8.254;2022-09-09T03:05:46;15.90;99.90
4934;DHT22;2482;49.154;8.254;2022-09-09T03:08:13;15.80;99.90
4934;DHT22;2482;49.154;8.254;2022-09-09T03:10:40;15.90;99.90
4934;DHT22;2482;49.154;8.254;2022-09-09T03:13:07;16.00;99.90
4934;DHT22;2482;49.154;8.254;2022-09-09T03:15:35;15.90;99.90
4934;DHT22;2482;49.154;8.254;2022-09-09T03:18:02;16.00;99.90
4934;DHT22;2482;49.154;8.254;2022-09-09T03:20:29;16.00;99.90
4934;DHT22;2482;49.154;8.254;2022-09-09T03:22:57;15.90;99.90
4934;DHT22;2482;49.154;8.254;2022-09-09T03:25:26;15.80;99.90
4934;DHT22;2482;49.154;8.254;2022-09-09T03:27:54;15.80;99.90
4934;DHT22;2482;49.154;8.254;2022-09-09T03:30:23;15.80;99.90
4934;DHT22;2482;49.154;8.254;2022-09-09T03:32:51;15.70;99.90
4934;DHT22;2482;49.154;8.254;2022-09-09T03:35:19;15.70;99.90
4934;DHT22;2482;49.154;8.254;2022-09-09T03:37:46;15.70;99.90
4934;DHT22;2482;49.154;8.254;2022-09-09T03:40:13;15.70;99.90
4934;DHT22;2482;49.154;8.254;2022-09-09T03:42:40;15.80;99.90
4934;DHT22;2482;49.154;8.254;2022-09-09T03:45:09;15.80;99.90
4934;DHT22;2482;49.154;8.254;2022-09-09T03:47:37;15.70;99.90
4934;DHT22;2482;49.154;8.254;2022-09-09T03:50:05;15.80;99.90
4934;DHT22;2482;49.154;8.254;2022-09-09T03:52:37;15.70;99.90
4934;DHT22;2482;49.154;8.254;2022-09-09T03:55:05;15.70;99.90
4934;DHT22;2482;49.154;8.254;2022-09-09T03:57:33;15.80;99.90
4934;DHT22;2482;49.154;8.254;2022-09-09T04:00:06;15.80;99.90
4934;DHT22;2482;49.154;8.254;2022-09-09T04:02:34;15.80;99.90
4934;DHT22;2482;49.154;8.254;2022-09-09T04:05:01;15.80;99.90
4934;DHT22;2482;49.154;8.254;2022-09-09T04:07:28;15.80;99.90
4934;DHT22;2482;49.154;8.254;2022-09-09T04:09:56;15.80;99.90
4934;DHT22;2482;49.154;8.254;2022-09-09T04:12:23;15.80;99.90
4934;DHT22;2482;49.154;8.254;2022-09-09T04:14:50;15.80;99.90
4934;DHT22;2482;49.154;8.254;2022-09-09T04:17:17;15.70;99.90
4934;DHT22;2482;49.154;8.254;2022-09-09T04:19:44;15.70;99.90
4934;DHT22;2482;49.154;8.254;2022-09-09T04:22:11;15.70;99.90
4934;DHT22;2482;49.154;8.254;2022-09-09T04:24:38;15.70;99.90
4934;DHT22;2482;49.154;8.254;2022-09-09T04:27:05;15.70;99.90
4934;DHT22;2482;49.154;8.254;2022-09-09T04:29:32;15.70;99.90
4934;DHT22;2482;49.154;8.254;2022-09-09T04:32:00;15.70;99.90
4934;DHT22;2482;49.154;8.254;2022-09-09T04:34:27;15.70;99.90
4934;DHT22;2482;49.154;8.254;2022-09-09T04:36:54;15.70;99.90
4934;DHT22;2482;49.154;8.254;2022-09-09T04:39:22;15.70;99.90
4934;DHT22;2482;49.154;8.254;2022-09-09T04:41:49;15.80;99.90
4934;DHT22;2482;49.154;8.254;2022-09-09T04:44:16;15.80;99.90
4934;DHT22;2482;49.154;8.254;2022-09-09T04:46:43;15.80;99.90
4934;DHT22;2482;49.154;8.254;2022-09-09T04:49:10;15.60;99.90
4934;DHT22;2482;49.154;8.254;2022-09-09T04:51:40;15.70;99.90
4934;DHT22;2482;49.154;8.254;2022-09-09T04:54:07;15.70;99.90
4934;DHT22;2482;49.154;8.254;2022-09-09T04:56:34;15.70;99.90
4934;DHT22;2482;49.154;8.254;2022-09-09T04:59:02;15.70;99.90
4934;DHT22;2482;49.154;8.254;2022-09-09T05:01:29;15.70;99.90
4934;DHT22;2482;49.154;8.254;2022-09-09T05:03:56;15.70;99.90
4934;DHT22;2482;49.154;8.254;2022-09-09T05:06:24;15.80;99.90
4934;DHT22;2482;49.154;8.254;2022-09-09T05:08:51;15.70;99.90
4934;DHT22;2482;49.154;8.254;2022-09-09T05:11:24;15.70;99.90
4934;DHT22;2482;49.154;8.254;2022-09-09T05:13:53;15.70;99.90
4934;DHT22;2482;49.154;8.254;2022-09-09T05:16:21;15.60;99.90
4934;DHT22;2482;49.154;8.254;2022-09-09T05:18:49;15.60;99.90
4934;DHT22;2482;49.154;8.254;2022-09-09T05:21:19;15.70;99.90
4934;DHT22;2482;49.154;8.254;2022-09-09T05:23:48;15.60;99.90
4934;DHT22;2482;49.154;8.254;2022-09-09T05:26:17;15.60;99.90
4934;DHT22;2482;49.154;8.254;2022-09-09T05:28:46;15.50;99.90
4934;DHT22;2482;49.154;8.254;2022-09-09T05:31:14;15.50;99.90
4934;DHT22;2482;49.154;8.254;2022-09-09T05:33:44;15.50;99.90
4934;DHT22;2482;49.154;8.254;2022-09-09T05:36:14;15.60;99.90
4934;DHT22;2482;49.154;8.254;2022-09-09T05:38:43;15.80;99.90
4934;DHT22;2482;49.154;8.254;2022-09-09T05:41:11;15.70;99.90
4934;DHT22;2482;49.154;8.254;2022-09-09T05:43:39;15.60;99.90
4934;DHT22;2482;49.154;8.254;2022-09-09T05:46:08;15.60;99.90
4934;DHT22;2482;49.154;8.254;2022-09-09T05:48:37;15.70;99.90
4934;DHT22;2482;49.154;8.254;2022-09-09T05:51:08;15.80;99.90
4934;DHT22;2482;49.154;8.254;2022-09-09T05:53:39;15.80;99.90
4934;DHT22;2482;49.154;8.254;2022-09-09T05:56:08;15.70;99.90
4934;DHT22;2482;49.154;8.254;2022-09-09T05:58:37;15.70;99.90
4934;DHT22;2482;49.154;8.254;2022-09-09T06:01:14;15.90;99.90
4934;DHT22;2482;49.154;8.254;2022-09-09T06:03:46;16.00;99.90
4934;DHT22;2482;49.154;8.254;2022-09-09T06:06:16;16.00;99.90
4934;DHT22;2482;49.154;8.254;2022-09-09T06:08:47;16.00;99.90
4934;DHT22;2482;49.154;8.254;2022-09-09T06:11:20;16.00;99.90
4934;DHT22;2482;49.154;8.254;2022-09-09T06:13:52;16.00;99.90
4934;DHT22;2482;49.154;8.254;2022-09-09T06:16:22;16.00;99.90
4934;DHT22;2482;49.154;8.254;2022-09-09T06:18:51;16.10;99.90
4934;DHT22;2482;49.154;8.254;2022-09-09T06:21:21;16.20;99.90
4934;DHT22;2482;49.154;8.254;2022-09-09T06:23:50;16.20;99.90
4934;DHT22;2482;49.154;8.254;2022-09-09T06:26:32;16.20;99.90
4934;DHT22;2482;49.154;8.254;2022-09-09T06:29:04;16.30;99.90
4934;DHT22;2482;49.154;8.254;2022-09-09T06:31:33;16.20;99.90
4934;DHT22;2482;49.154;8.254;2022-09-09T06:34:02;16.30;99.90
4934;DHT22;2482;49.154;8.254;2022-09-09T06:36:34;16.30;99.90
4934;DHT22;2482;49.154;8.254;2022-09-09T06:39:02;16.30;99.90
4934;DHT22;2482;49.154;8.254;2022-09-09T06:41:31;16.30;99.90
4934;DHT22;2482;49.154;8.254;2022-09-09T06:43:58;16.30;99.90
4934;DHT22;2482;49.154;8.254;2022-09-09T06:46:28;16.40;99.90
4934;DHT22;2482;49.154;8.254;2022-09-09T06:48:57;16.40;99.90
4934;DHT22;2482;49.154;8.254;2022-09-09T06:51:35;16.60;99.90
4934;DHT22;2482;49.154;8.254;2022-09-09T06:54:03;16.60;99.90
4934;DHT22;2482;49.154;8.254;2022-09-09T06:56:33;16.70;99.90
4934;DHT22;2482;49.154;8.254;2022-09-09T06:59:06;16.90;99.90
4934;DHT22;2482;49.154;8.254;2022-09-09T07:01:37;16.90;99.90
4934;DHT22;2482;49.154;8.254;2022-09-09T07:04:07;17.00;99.90
4934;DHT22;2482;49.154;8.254;2022-09-09T07:06:37;17.00;99.90
4934;DHT22;2482;49.154;8.254;2022-09-09T07:09:08;17.10;99.90
4934;DHT22;2482;49.154;8.254;2022-09-09T07:11:45;17.00;99.90
4934;DHT22;2482;49.154;8.254;2022-09-09T07:14:13;17.20;99.90
4934;DHT22;2482;49.154;8.254;2022-09-09T07:16:42;17.10;99.90
4934;DHT22;2482;49.154;8.254;2022-09-09T07:19:11;17.00;99.90
4934;DHT22;2482;49.154;8.254;2022-09-09T07:21:39;17.10;99.90
4934;DHT22;2482;49.154;8.254;2022-09-09T07:24:09;17.10;99.90
4934;DHT22;2482;49.154;8.254;2022-09-09T07:26:38;17.30;99.90
4934;DHT22;2482;49.154;8.254;2022-09-09T07:29:06;17.50;99.90
4934;DHT22;2482;49.154;8.254;2022-09-09T07:31:36;17.70;99.90
4934;DHT22;2482;49.154;8.254;2022-09-09T07:34:04;17.80;99.90
4934;DHT22;2482;49.154;8.254;2022-09-09T07:36:37;17.80;99.90
4934;DHT22;2482;49.154;8.254;2022-09-09T07:39:07;18.00;99.90
4934;DHT22;2482;49.154;8.254;2022-09-09T07:41:37;18.30;99.90
4934;DHT22;2482;49.154;8.254;2022-09-09T07:44:14;18.30;99.90
4934;DHT22;2482;49.154;8.254;2022-09-09T07:46:43;18.40;99.90
4934;DHT22;2482;49.154;8.254;2022-09-09T07:49:12;18.80;99.90
4934;DHT22;2482;49.154;8.254;2022-09-09T07:51:41;19.00;99.90
4934;DHT22;2482;49.154;8.254;2022-09-09T07:54:12;19.00;99.90
4934;DHT22;2482;49.154;8.254;2022-09-09T07:56:41;18.90;99.90
4934;DHT22;2482;49.154;8.254;2022-09-09T07:59:08;19.00;99.90
4934;DHT22;2482;49.154;8.254;2022-09-09T08:01:45;18.80;99.90
4934;DHT22;2482;49.154;8.254;2022-09-09T08:04:18;18.70;99.90
4934;DHT22;2482;49.154;8.254;2022-09-09T08:06:48;18.50;99.90
4934;DHT22;2482;49.154;8.254;2022-09-09T08:09:19;18.30;99.90
4934;DHT22;2482;49.154;8.254;2022-09-09T08:11:47;18.20;99.90
4934;DHT22;2482;49.154;8.254;2022-09-09T08:14:14;18.30;99.90
4934;DHT22;2482;49.154;8.254;2022-09-09T08:16:44;18.20;99.90
4934;DHT22;2482;49.154;8.254;2022-09-09T08:19:12;18.10;99.90
4934;DHT22;2482;49.154;8.254;2022-09-09T08:21:42;18.00;99.90
4934;DHT22;2482;49.154;8.254;2022-09-09T08:24:11;18.10;99.90
4934;DHT22;2482;49.154;8.254;2022-09-09T08:26:41;18.30;99.90
4934;DHT22;2482;49.154;8.254;2022-09-09T08:29:10;18.30;99.90
4934;DHT22;2482;49.154;8.254;2022-09-09T08:31:44;18.40;99.90
4934;DHT22;2482;49.154;8.254;2022-09-09T08:34:15;18.30;99.90
4934;DHT22;2482;49.154;8.254;2022-09-09T08:36:45;18.30;99.90
4934;DHT22;2482;49.154;8.254;2022-09-09T08:39:15;18.50;99.90
4934;DHT22;2482;49.154;8.254;2022-09-09T08:47:56;18.70;99.90
4934;DHT22;2482;49.154;8.254;2022-09-09T08:50:36;18.90;99.90
4934;DHT22;2482;49.154;8.254;2022-09-09T08:55:54;19.40;99.90
4934;DHT22;2482;49.154;8.254;2022-09-09T08:58:30;19.20;99.90
4934;DHT22;2482;49.154;8.254;2022-09-09T09:07:43;19.10;99.90
4934;DHT22;2482;49.154;8.254;2022-09-09T09:13:29;19.10;99.90
4934;DHT22;2482;49.154;8.254;2022-09-09T09:16:10;19.20;99.90
4934;DHT22;2482;49.154;8.254;2022-09-09T09:18:43;19.20;99.90
4934;DHT22;2482;49.154;8.254;2022-09-09T09:21:19;18.90;99.90
4934;DHT22;2482;49.154;8.254;2022-09-09T09:23:59;18.80;99.90
4934;DHT22;2482;49.154;8.254;2022-09-09T09:26:34;18.70;99.90
4934;DHT22;2482;49.154;8.254;2022-09-09T09:29:11;18.80;99.90
4934;DHT22;2482;49.154;8.254;2022-09-09T09:31:55;18.50;99.90
4934;DHT22;2482;49.154;8.254;2022-09-09T09:34:23;18.50;99.90
4934;DHT22;2482;49.154;8.254;2022-09-09T09:36:59;18.50;99.90
4934;DHT22;2482;49.154;8.254;2022-09-09T09:39:30;18.50;99.90
4934;DHT22;2482;49.154;8.254;2022-09-09T09:42:26;18.50;99.90
4934;DHT22;2482;49.154;8.254;2022-09-09T09:44:53;18.40;99.90
4934;DHT22;2482;49.154;8.254;2022-09-09T09:47:22;18.40;99.90
4934;DHT22;2482;49.154;8.254;2022-09-09T09:49:58;18.50;99.90
4934;DHT22;2482;49.154;8.254;2022-09-09T09:52:28;18.50;99.90
4934;DHT22;2482;49.154;8.254;2022-09-09T09:54:58;18.60;99.90
4934;DHT22;2482;49.154;8.254;2022-09-09T09:57:33;18.50;99.90
4934;DHT22;2482;49.154;8.254;2022-09-09T10:00:22;18.40;99.90
4934;DHT22;2482;49.154;8.254;2022-09-09T10:02:50;18.40;99.90
4934;DHT22;2482;49.154;8.254;2022-09-09T10:05:23;18.90;99.90
4934;DHT22;2482;49.154;8.254;2022-09-09T10:08:04;19.20;99.90
4934;DHT22;2482;49.154;8.254;2022-09-09T10:10:52;19.70;99.90
4934;DHT22;2482;49.154;8.254;2022-09-09T10:19:07;20.10;99.90
4934;DHT22;2482;49.154;8.254;2022-09-09T10:27:27;19.80;99.90
4934;DHT22;2482;49.154;8.254;2022-09-09T10:30:50;19.70;99.90
4934;DHT22;2482;49.154;8.254;2022-09-09T10:33:38;19.70;99.90
4934;DHT22;2482;49.154;8.254;2022-09-09T10:36:24;20.10;99.90
4934;DHT22;2482;49.154;8.254;2022-09-09T10:41:50;20.30;99.90
4934;DHT22;2482;49.154;8.254;2022-09-09T10:47:24;20.50;99.90
4934;DHT22;2482;49.154;8.254;2022-09-09T10:50:34;20.40;99.90
4934;DHT22;2482;49.154;8.254;2022-09-09T10:56:33;21.30;99.90
4934;DHT22;2482;49.154;8.254;2022-09-09T10:59:07;21.80;99.90
4934;DHT22;2482;49.154;8.254;2022-09-09T11:01:46;22.00;99.90
4934;DHT22;2482;49.154;8.254;2022-09-09T11:04:22;22.20;99.90
4934;DHT22;2482;49.154;8.254;2022-09-09T11:06:55;22.40;99.90
4934;DHT22;2482;49.154;8.254;2022-09-09T11:09:31;22.40;99.90
4934;DHT22;2482;49.154;8.254;2022-09-09T11:12:01;22.30;99.90
4934;DHT22;2482;49.154;8.254;2022-09-09T11:14:34;21.90;99.90
4934;DHT22;2482;49.154;8.254;2022-09-09T11:17:13;21.30;99.90
4934;DHT22;2482;49.154;8.254;2022-09-09T11:19:47;21.30;99.90
4934;DHT22;2482;49.154;8.254;2022-09-09T11:22:33;21.10;99.90
4934;DHT22;2482;49.154;8.254;2022-09-09T11:25:09;20.90;99.90
4934;DHT22;2482;49.154;8.254;2022-09-09T11:36:43;20.40;99.90
4934;DHT22;2482;49.154;8.254;2022-09-09T11:42:23;20.60;99.90
4934;DHT22;2482;49.154;8.254;2022-09-09T11:44:52;20.70;99.90
4934;DHT22;2482;49.154;8.254;2022-09-09T11:47:28;20.80;99.90
4934;DHT22;2482;49.154;8.254;2022-09-09T11:52:43;20.70;99.90
4934;DHT22;2482;49.154;8.254;2022-09-09T12:00:40;20.40;99.90
4934;DHT22;2482;49.154;8.254;2022-09-09T12:03:32;20.30;99.90
4934;DHT22;2482;49.154;8.254;2022-09-09T12:06:31;20.10;99.90
4934;DHT22;2482;49.154;8.254;2022-09-09T12:11:52;20.20;99.90
4934;DHT22;2482;49.154;8.254;2022-09-09T12:14:36;20.20;99.90
4934;DHT22;2482;49.154;8.254;2022-09-09T12:17:23;20.10;99.90
4934;DHT22;2482;49.154;8.254;2022-09-09T12:20:08;20.10;99.90
4934;DHT22;2482;49.154;8.254;2022-09-09T12:28:30;20.50;99.90
4934;DHT22;2482;49.154;8.254;2022-09-09T12:34:49;20.40;99.90
4934;DHT22;2482;49.154;8.254;2022-09-09T12:37:37;20.40;99.90
4934;DHT22;2482;49.154;8.254;2022-09-09T12:40:19;20.10;99.90
4934;DHT22;2482;49.154;8.254;2022-09-09T12:42:46;20.10;99.90
4934;DHT22;2482;49.154;8.254;2022-09-09T12:45:25;20.10;99.90
4934;DHT22;2482;49.154;8.254;2022-09-09T12:48:08;19.90;99.90
4934;DHT22;2482;49.154;8.254;2022-09-09T12:50:44;20.10;99.90
4934;DHT22;2482;49.154;8.254;2022-09-09T12:53:23;19.00;99.90
4934;DHT22;2482;49.154;8.254;2022-09-09T12:55:57;18.00;99.90
4934;DHT22;2482;49.154;8.254;2022-09-09T12:58:32;17.60;99.90
4934;DHT22;2482;49.154;8.254;2022-09-09T13:01:00;17.40;99.90
4934;DHT22;2482;49.154;8.254;2022-09-09T13:03:32;17.30;99.90
4934;DHT22;2482;49.154;8.254;2022-09-09T13:06:12;17.30;99.90
4934;DHT22;2482;49.154;8.254;2022-09-09T13:08:43;17.50;99.90
4934;DHT22;2482;49.154;8.254;2022-09-09T13:11:14;17.70;99.90
4934;DHT22;2482;49.154;8.254;2022-09-09T13:13:51;18.00;99.90
4934;DHT22;2482;49.154;8.254;2022-09-09T13:16:26;18.20;99.90
4934;DHT22;2482;49.154;8.254;2022-09-09T13:19:15;18.50;99.90
4934;DHT22;2482;49.154;8.254;2022-09-09T13:21:42;18.90;99.90
4934;DHT22;2482;49.154;8.254;2022-09-09T13:24:40;18.90;99.90
4934;DHT22;2482;49.154;8.254;2022-09-09T13:27:29;18.90;99.90
4934;DHT22;2482;49.154;8.254;2022-09-09T13:29:58;19.20;99.90
4934;DHT22;2482;49.154;8.254;2022-09-09T13:32:26;19.60;99.90
4934;DHT22;2482;49.154;8.254;2022-09-09T13:35:01;19.70;99.90
4934;DHT22;2482;49.154;8.254;2022-09-09T13:37:39;20.00;99.90
4934;DHT22;2482;49.154;8.254;2022-09-09T13:40:18;20.00;99.90
4934;DHT22;2482;49.154;8.254;2022-09-09T13:42:52;20.40;99.90
4934;DHT22;2482;49.154;8.254;2022-09-09T13:45:24;20.50;99.90
4934;DHT22;2482;49.154;8.254;2022-09-09T13:47:55;20.50;99.90
4934;DHT22;2482;49.154;8.254;2022-09-09T13:50:25;20.60;99.90
4934;DHT22;2482;49.154;8.254;2022-09-09T13:52:55;20.90;99.90
4934;DHT22;2482;49.154;8.254;2022-09-09T13:55:27;20.90;99.90
4934;DHT22;2482;49.154;8.254;2022-09-09T13:58:00;21.00;99.90
4934;DHT22;2482;49.154;8.254;2022-09-09T14:00:33;21.00;99.90
4934;DHT22;2482;49.154;8.254;2022-09-09T14:03:01;21.10;99.90
4934;DHT22;2482;49.154;8.254;2022-09-09T14:05:31;21.10;99.90
4934;DHT22;2482;49.154;8.254;2022-09-09T14:07:58;21.30;99.90
4934;DHT22;2482;49.154;8.254;2022-09-09T14:10:28;21.40;99.90
4934;DHT22;2482;49.154;8.254;2022-09-09T14:12:55;21.50;99.90
4934;DHT22;2482;49.154;8.254;2022-09-09T14:15:22;21.50;99.90
4934;DHT22;2482;49.154;8.254;2022-09-09T14:17:49;21.40;99.90
4934;DHT22;2482;49.154;8.254;2022-09-09T14:20:18;21.10;99.90
4934;DHT22;2482;49.154;8.254;2022-09-09T14:22:45;20.90;99.90
4934;DHT22;2482;49.154;8.254;2022-09-09T14:25:13;20.80;99.90
4934;DHT22;2482;49.154;8.254;2022-09-09T14:27:41;20.90;99.90
4934;DHT22;2482;49.154;8.254;2022-09-09T14:30:09;20.80;99.90
4934;DHT22;2482;49.154;8.254;2022-09-09T14:32:36;20.80;99.90
4934;DHT22;2482;49.154;8.254;2022-09-09T14:35:03;20.80;99.90
4934;DHT22;2482;49.154;8.254;2022-09-09T14:37:31;21.10;99.90
4934;DHT22;2482;49.154;8.254;2022-09-09T14:39:58;21.20;99.90
4934;DHT22;2482;49.154;8.254;2022-09-09T14:42:25;21.40;99.90
4934;DHT22;2482;49.154;8.254;2022-09-09T14:44:53;21.50;99.90
4934;DHT22;2482;49.154;8.254;2022-09-09T14:47:20;21.30;99.90
4934;DHT22;2482;49.154;8.254;2022-09-09T14:49:47;21.20;99.90
4934;DHT22;2482;49.154;8.254;2022-09-09T14:52:16;21.10;99.90
4934;DHT22;2482;49.154;8.254;2022-09-09T14:54:43;21.10;99.90
4934;DHT22;2482;49.154;8.254;2022-09-09T14:57:10;20.90;99.90
4934;DHT22;2482;49.154;8.254;2022-09-09T14:59:37;21.00;99.90
4934;DHT22;2482;49.154;8.254;2022-09-09T15:02:04;21.00;99.90
4934;DHT22;2482;49.154;8.254;2022-09-09T15:04:32;21.10;99.90
4934;DHT22;2482;49.154;8.254;2022-09-09T15:06:59;21.10;99.90
4934;DHT22;2482;49.154;8.254;2022-09-09T15:09:26;21.10;99.90
4934;DHT22;2482;49.154;8.254;2022-09-09T15:11:53;21.00;99.90
4934;DHT22;2482;49.154;8.254;2022-09-09T15:14:20;21.00;99.90
4934;DHT22;2482;49.154;8.254;2022-09-09T15:16:50;20.90;99.90
4934;DHT22;2482;49.154;8.254;2022-09-09T15:19:17;20.90;99.90
4934;DHT22;2482;49.154;8.254;2022-09-09T15:21:44;20.90;99.90
4934;DHT22;2482;49.154;8.254;2022-09-09T15:24:11;20.80;99.90
4934;DHT22;2482;49.154;8.254;2022-09-09T15:26:40;20.80;99.90
4934;DHT22;2482;49.154;8.254;2022-09-09T15:29:08;20.70;99.90
4934;DHT22;2482;49.154;8.254;2022-09-09T15:31:35;20.60;99.90
4934;DHT22;2482;49.154;8.254;2022-09-09T15:34:07;20.60;99.90
4934;DHT22;2482;49.154;8.254;2022-09-09T15:36:36;20.60;99.90
4934;DHT22;2482;49.154;8.254;2022-09-09T15:39:07;20.80;99.90
4934;DHT22;2482;49.154;8.254;2022-09-09T15:41:39;20.80;99.90
4934;DHT22;2482;49.154;8.254;2022-09-09T15:44:07;20.80;99.90
4934;DHT22;2482;49.154;8.254;2022-09-09T15:46:42;20.90;99.90
4934;DHT22;2482;49.154;8.254;2022-09-09T15:49:45;21.10;99.90
4934;DHT22;2482;49.154;8.254;2022-09-09T15:52:05;21.00;99.90
4934;DHT22;2482;49.154;8.254;2022-09-09T15:54:34;21.10;99.90
4934;DHT22;2482;49.154;8.254;2022-09-09T15:57:03;21.00;99.90
4934;DHT22;2482;49.154;8.254;2022-09-09T15:59:31;20.80;99.90
4934;DHT22;2482;49.154;8.254;2022-09-09T16:02:00;20.70;99.90
4934;DHT22;2482;49.154;8.254;2022-09-09T16:04:28;20.50;99.90
4934;DHT22;2482;49.154;8.254;2022-09-09T16:07:04;20.50;99.90
4934;DHT22;2482;49.154;8.254;2022-09-09T16:09:32;20.40;99.90
4934;DHT22;2482;49.154;8.254;2022-09-09T16:12:00;20.20;99.90
4934;DHT22;2482;49.154;8.254;2022-09-09T16:14:29;20.20;99.90
4934;DHT22;2482;49.154;8.254;2022-09-09T16:17:00;20.20;99.90
4934;DHT22;2482;49.154;8.254;2022-09-09T16:19:28;20.10;99.90
4934;DHT22;2482;49.154;8.254;2022-09-09T16:21:55;20.00;99.90
4934;DHT22;2482;49.154;8.254;2022-09-09T16:24:23;19.90;99.90
4934;DHT22;2482;49.154;8.254;2022-09-09T16:26:52;19.90;99.90
4934;DHT22;2482;49.154;8.254;2022-09-09T16:29:21;19.70;99.90
4934;DHT22;2482;49.154;8.254;2022-09-09T16:31:49;19.50;99.90
4934;DHT22;2482;49.154;8.254;2022-09-09T16:34:17;19.70;99.90
4934;DHT22;2482;49.154;8.254;2022-09-09T16:36:45;19.60;99.90
4934;DHT22;2482;49.154;8.254;2022-09-09T16:39:15;19.30;99.90
4934;DHT22;2482;49.154;8.254;2022-09-09T16:41:44;19.00;99.90
4934;DHT22;2482;49.154;8.254;2022-09-09T16:44:13;18.80;99.90
4934;DHT22;2482;49.154;8.254;2022-09-09T16:46:43;18.90;99.90
4934;DHT22;2482;49.154;8.254;2022-09-09T16:49:12;18.90;99.90
4934;DHT22;2482;49.154;8.254;2022-09-09T16:51:45;18.80;99.90
4934;DHT22;2482;49.154;8.254;2022-09-09T16:54:16;18.50;99.90
4934;DHT22;2482;49.154;8.254;2022-09-09T16:56:45;18.80;99.90
4934;DHT22;2482;49.154;8.254;2022-09-09T16:59:18;18.60;99.90
4934;DHT22;2482;49.154;8.254;2022-09-09T17:01:49;18.40;99.90
4934;DHT22;2482;49.154;8.254;2022-09-09T17:04:26;18.30;99.90
4934;DHT22;2482;49.154;8.254;2022-09-09T17:06:55;18.40;99.90
4934;DHT22;2482;49.154;8.254;2022-09-09T17:09:25;18.30;99.90
4934;DHT22;2482;49.154;8.254;2022-09-09T17:11:56;18.20;99.90
4934;DHT22;2482;49.154;8.254;2022-09-09T17:14:23;18.10;99.90
4934;DHT22;2482;49.154;8.254;2022-09-09T17:16:50;18.00;99.90
4934;DHT22;2482;49.154;8.254;2022-09-09T17:19:17;18.10;99.90
4934;DHT22;2482;49.154;8.254;2022-09-09T17:21:44;18.00;99.90
4934;DHT22;2482;49.154;8.254;2022-09-09T17:24:34;18.00;99.90
4934;DHT22;2482;49.154;8.254;2022-09-09T17:27:01;17.70;99.90
4934;DHT22;2482;49.154;8.254;2022-09-09T17:29:28;17.50;99.90
4934;DHT22;2482;49.154;8.254;2022-09-09T17:31:55;17.50;99.90
4934;DHT22;2482;49.154;8.254;2022-09-09T17:34:23;17.40;99.90
4934;DHT22;2482;49.154;8.254;2022-09-09T17:36:51;17.40;99.90
4934;DHT22;2482;49.154;8.254;2022-09-09T17:39:18;17.50;99.90
4934;DHT22;2482;49.154;8.254;2022-09-09T17:41:46;17.40;99.90
4934;DHT22;2482;49.154;8.254;2022-09-09T17:44:13;17.10;99.90
4934;DHT22;2482;49.154;8.254;2022-09-09T17:46:41;17.10;99.90
4934;DHT22;2482;49.154;8.254;2022-09-09T17:49:14;17.00;99.90
4934;DHT22;2482;49.154;8.254;2022-09-09T17:51:43;17.10;99.90
4934;DHT22;2482;49.154;8.254;2022-09-09T17:54:17;17.00;99.90
4934;DHT22;2482;49.154;8.254;2022-09-09T17:56:46;16.90;99.90
4934;DHT22;2482;49.154;8.254;2022-09-09T17:59:15;16.90;99.90
4934;DHT22;2482;49.154;8.254;2022-09-09T18:01:46;16.90;99.90
4934;DHT22;2482;49.154;8.254;2022-09-09T18:04:16;17.00;99.90
4934;DHT22;2482;49.154;8.254;2022-09-09T18:06:46;17.10;99.90
4934;DHT22;2482;49.154;8.254;2022-09-09T18:09:19;17.00;99.90
4934;DHT22;2482;49.154;8.254;2022-09-09T18:11:52;17.10;99.90
4934;DHT22;2482;49.154;8.254;2022-09-09T18:14:24;17.00;99.90
4934;DHT22;2482;49.154;8.254;2022-09-09T18:17:01;17.10;99.90
4934;DHT22;2482;49.154;8.254;2022-09-09T18:19:31;17.20;99.90